Ana Sayfa
METAR-TAF:

METAR-TAF

Havaalanları :

Bonriki Uluslararası Havalimanı

Tarawa, Kiribati

Enlem: 01-21N, Boylam: 172-55E, yükseklik: 2 m

Güncel hava durumu gözlemi

Rapor saat 02:00 UTC de 56 dakika önce yapıldı.
Rüzgar güneydan 9 kt
Sıcaklık 32°C
Nem 63%
Basınç 1005 hPa
Görüş mesafesi 10 km veya daha fazla
2000 ft yükseklikte az bulutlu
30000 ft yükseklikte parçalı bulutlu

METAR: NGTA 230200Z 19009KT 9999 FEW020 SCT300 32/24 Q1005

Saat: 16:56 (02:56 UTC)

Tahmin

Rapor saat 23:17 UTC de 3 saat ve 39 dakika önce yapıldı.
Ayın 23'si saat 00 UTC'den ayın 23'si saat 24 UTC'ye kadar geçerli Tahmin
Rüzgar güneydan 7 kt
Görüş mesafesi 10 km veya daha fazla
2000 ft yükseklikte az bulutlu
10000 ft yükseklikte parçalı bulutlu

TAF: NGTA 222317Z 2300/2324 17007KT 9999 FEW020 SCT100

4.000'den fazla havaalanı için hava durumu gözlemleri ve tahminleri (METAR ve TAF raporları).

Kullanılabilir istasyonlar harita üzerinde sarı ve kırmızı noktalarla gösterilir.

İstasyonun adını görmek için fareyi noktanın üzerinde gezdirin.

Sonrasında hava gözlem ve tahminlerini görmek için tıklayın.

Haritayı değiştirmek için: yaklaştırmak için siyah artı işaretli yeşil düğmeye ve uzaklaştırmak için de eksi işaretli düğmeye hızla tıklayın; bitişik haritalar için yeşil okları kullanın.


METAR-TAF: